createdAt,value
2022-08-20T00:00:18.883Z,97.64
2022-08-20T00:02:51.715Z,96.91
2022-08-20T00:05:24.216Z,97.78
2022-08-20T00:07:53.912Z,98.48
2022-08-20T00:10:24.059Z,98.41
2022-08-20T00:12:55.074Z,98.09
2022-08-20T00:15:28.601Z,98.32
2022-08-20T00:17:58.780Z,98.39
2022-08-20T00:20:30.026Z,99.77
2022-08-20T00:23:00.144Z,98.86
2022-08-20T00:25:30.393Z,99.53
2022-08-20T00:28:01.657Z,97.70
2022-08-20T00:30:33.052Z,97.21
2022-08-20T00:33:06.125Z,97.70
2022-08-20T00:35:37.779Z,97.41
2022-08-20T00:38:07.538Z,98.96
2022-08-20T00:40:39.377Z,99.35
2022-08-20T00:43:27.906Z,99.04
2022-08-20T00:45:57.473Z,98.24
2022-08-20T00:48:28.909Z,97.24
2022-08-20T00:51:03.635Z,97.26
2022-08-20T00:53:33.429Z,97.30
2022-08-20T00:56:02.866Z,96.89
2022-08-20T00:58:34.499Z,97.30
2022-08-20T01:01:04.669Z,96.71
2022-08-20T01:03:34.037Z,96.25
2022-08-20T01:06:03.088Z,96.86
2022-08-20T01:08:32.481Z,95.27
2022-08-20T01:11:10.109Z,94.62
2022-08-20T01:13:41.859Z,94.53
2022-08-20T01:16:20.419Z,93.16
2022-08-20T01:18:50.700Z,94.14
2022-08-20T01:21:24.296Z,93.63
2022-08-20T01:24:00.707Z,93.33
2022-08-20T01:26:36.222Z,92.80
2022-08-20T01:29:08.743Z,92.93
2022-08-20T01:31:40.341Z,94.16
2022-08-20T01:34:12.540Z,92.36
2022-08-20T01:36:46.353Z,92.66
2022-08-20T01:39:18.552Z,92.66
2022-08-20T01:42:00.802Z,93.41
2022-08-20T01:44:30.990Z,93.02
2022-08-20T01:47:10.994Z,91.42
2022-08-20T01:49:43.936Z,93.49
2022-08-20T01:52:15.894Z,92.29
2022-08-20T01:54:46.679Z,92.96
2022-08-20T01:57:20.459Z,92.48
2022-08-20T01:59:52.042Z,92.44
2022-08-20T02:02:21.617Z,92.79
2022-08-20T02:04:51.131Z,92.61
2022-08-20T02:07:23.607Z,92.40
2022-08-20T02:09:52.809Z,92.33
2022-08-20T02:12:23.233Z,91.47
2022-08-20T02:14:54.815Z,91.63
2022-08-20T02:17:26.797Z,92.85
2022-08-20T02:19:59.682Z,92.57
2022-08-20T02:22:37.734Z,92.25
2022-08-20T02:25:08.769Z,92.28
2022-08-20T02:27:41.966Z,94.20
2022-08-20T02:30:27.983Z,93.22
2022-08-20T02:32:58.260Z,93.45
2022-08-20T02:35:28.511Z,94.67
2022-08-20T02:37:58.198Z,94.94
2022-08-20T02:40:31.432Z,93.76
2022-08-20T02:43:03.095Z,93.75
2022-08-20T02:45:37.492Z,93.06
2022-08-20T02:48:07.196Z,92.72
2022-08-20T02:50:36.264Z,93.84
2022-08-20T02:53:05.611Z,93.59
2022-08-20T02:55:34.731Z,93.55
2022-08-20T02:58:05.703Z,93.17
2022-08-20T03:00:38.439Z,94.12
2022-08-20T03:03:09.137Z,93.27
2022-08-20T03:05:41.484Z,94.51
2022-08-20T03:08:12.337Z,93.80
2022-08-20T03:10:43.906Z,93.83
2022-08-20T03:13:15.945Z,94.37
2022-08-20T03:15:47.762Z,94.10
2022-08-20T03:18:20.812Z,93.55
2022-08-20T03:20:52.157Z,93.70
2022-08-20T03:23:22.491Z,93.90
2022-08-20T03:25:51.588Z,95.41
2022-08-20T03:28:22.333Z,95.96
2022-08-20T03:30:53.155Z,95.76
2022-08-20T03:33:24.072Z,96.85
2022-08-20T03:35:54.163Z,97.01
2022-08-20T03:38:33.305Z,97.75
2022-08-20T03:41:03.913Z,96.26
2022-08-20T03:43:35.366Z,95.91
2022-08-20T03:46:05.187Z,96.11
2022-08-20T03:48:59.508Z,95.96
2022-08-20T03:51:31.403Z,96.03
2022-08-20T03:54:00.587Z,94.46
2022-08-20T03:56:30.074Z,94.78
2022-08-20T03:59:00.618Z,93.85
2022-08-20T04:01:44.281Z,92.99
2022-08-20T04:04:15.791Z,93.33
2022-08-20T04:06:47.015Z,94.24
2022-08-20T04:09:16.776Z,95.34
2022-08-20T04:11:45.881Z,94.70
2022-08-20T04:14:18.521Z,94.28
2022-08-20T04:16:48.961Z,94.81
2022-08-20T04:19:18.533Z,93.68
2022-08-20T04:21:48.400Z,93.20
2022-08-20T04:24:22.757Z,93.59
2022-08-20T04:27:02.671Z,92.46
2022-08-20T04:29:35.606Z,93.04
2022-08-20T04:32:06.229Z,92.35
2022-08-20T04:34:36.889Z,92.17
2022-08-20T04:37:06.619Z,91.63
2022-08-20T04:40:06.777Z,91.44
2022-08-20T04:42:38.146Z,91.32
2022-08-20T04:45:11.078Z,90.76
2022-08-20T04:47:40.177Z,90.75
2022-08-20T04:50:11.015Z,91.23
2022-08-20T04:52:40.825Z,90.57
2022-08-20T04:55:11.393Z,90.76
2022-08-20T04:57:41.108Z,91.44
2022-08-20T05:00:15.206Z,90.68
2022-08-20T05:02:44.400Z,89.91
2022-08-20T05:05:14.305Z,90.19
2022-08-20T05:07:45.771Z,90.65
2022-08-20T05:10:16.914Z,90.23
2022-08-20T05:12:56.518Z,89.89
2022-08-20T05:15:27.949Z,90.43
2022-08-20T05:18:00.575Z,90.83
2022-08-20T05:20:32.637Z,90.49
2022-08-20T05:23:03.058Z,90.74
2022-08-20T05:25:32.473Z,90.37
2022-08-20T05:28:06.021Z,89.56
2022-08-20T05:30:37.426Z,89.96
2022-08-20T05:33:08.422Z,90.15
2022-08-20T05:35:39.918Z,89.21
2022-08-20T05:38:11.634Z,88.68
2022-08-20T05:40:42.040Z,89.22
2022-08-20T05:43:11.289Z,89.19
2022-08-20T05:45:43.794Z,89.43
2022-08-20T05:48:15.375Z,89.08
2022-08-20T05:50:49.116Z,88.96
2022-08-20T05:53:19.366Z,87.84
2022-08-20T05:55:49.426Z,88.04
2022-08-20T05:58:22.033Z,88.32
2022-08-20T06:00:54.096Z,88.25
2022-08-20T06:03:41.158Z,88.53
2022-08-20T06:06:17.957Z,88.65
2022-08-20T06:08:59.912Z,87.98
2022-08-20T06:11:32.625Z,88.22
2022-08-20T06:14:04.242Z,87.69
2022-08-20T06:16:37.419Z,88.15
2022-08-20T06:19:06.969Z,88.14
2022-08-20T06:21:41.106Z,88.71
2022-08-20T06:24:10.681Z,87.92
2022-08-20T06:26:39.717Z,87.83
2022-08-20T06:29:09.053Z,87.40
2022-08-20T06:31:39.995Z,87.47
2022-08-20T06:34:09.032Z,88.14
2022-08-20T06:36:38.194Z,87.82
2022-08-20T06:39:07.331Z,88.27
2022-08-20T06:41:37.255Z,86.74
2022-08-20T06:44:07.608Z,84.42
2022-08-20T06:46:39.238Z,84.80
2022-08-20T06:49:09.065Z,83.49
2022-08-20T06:51:40.098Z,83.49
2022-08-20T06:54:10.683Z,85.30
2022-08-20T06:56:40.095Z,83.46
2022-08-20T06:59:09.321Z,83.70
2022-08-20T07:01:39.756Z,83.24
2022-08-20T07:04:08.831Z,84.30
2022-08-20T07:06:38.028Z,82.15
2022-08-20T07:09:07.139Z,80.31
2022-08-20T07:11:36.333Z,79.62
2022-08-20T07:14:05.988Z,80.37
2022-08-20T07:16:35.085Z,80.04
2022-08-20T07:19:05.619Z,79.41
2022-08-20T07:21:34.700Z,78.00
2022-08-20T07:24:04.436Z,74.62
2022-08-20T07:26:34.451Z,73.04
2022-08-20T07:29:03.583Z,67.63
2022-08-20T07:31:50.023Z,72.24
2022-08-20T07:34:20.558Z,72.18
2022-08-20T07:36:50.339Z,71.07
2022-08-20T07:39:19.383Z,71.59
2022-08-20T07:42:02.976Z,72.68
2022-08-20T07:44:32.390Z,70.79
2022-08-20T07:47:01.832Z,67.52
2022-08-20T07:49:33.626Z,66.51
2022-08-20T07:52:02.688Z,65.94
2022-08-20T07:54:31.787Z,67.94
2022-08-20T07:57:03.471Z,68.65
2022-08-20T07:59:32.987Z,69.70
2022-08-20T08:02:02.145Z,68.05
2022-08-20T08:04:32.592Z,68.41
2022-08-20T08:07:02.166Z,68.46
2022-08-20T08:09:32.900Z,68.85
2022-08-20T08:12:03.681Z,68.69
2022-08-20T08:14:36.617Z,69.92
2022-08-20T08:17:07.534Z,70.34
2022-08-20T08:19:42.061Z,67.06
2022-08-20T08:22:13.583Z,67.78
2022-08-20T08:24:57.675Z,65.36
2022-08-20T08:27:27.073Z,64.13
2022-08-20T08:29:56.516Z,65.04
2022-08-20T08:32:25.631Z,63.68
2022-08-20T08:34:56.360Z,60.91
2022-08-20T08:37:30.094Z,62.14
2022-08-20T08:40:01.321Z,63.76
2022-08-20T08:42:43.222Z,63.91
2022-08-20T08:45:18.610Z,63.94
2022-08-20T08:47:47.756Z,63.64
2022-08-20T08:50:52.922Z,63.08
2022-08-20T08:53:23.063Z,59.63
2022-08-20T08:55:52.556Z,60.42
2022-08-20T08:58:21.713Z,56.25
2022-08-20T09:00:56.573Z,56.96
2022-08-20T09:03:31.520Z,57.24
2022-08-20T09:06:03.700Z,56.42
2022-08-20T09:08:41.573Z,56.60
2022-08-20T09:11:13.153Z,52.48
2022-08-20T09:13:46.361Z,53.69
2022-08-20T09:16:16.003Z,52.46
2022-08-20T09:18:45.274Z,52.45
2022-08-20T09:21:16.379Z,50.84
2022-08-20T09:23:46.160Z,51.01
2022-08-20T09:26:15.662Z,51.45
2022-08-20T09:28:52.146Z,52.79
2022-08-20T09:31:24.265Z,53.84
2022-08-20T09:33:53.552Z,52.01
2022-08-20T09:36:31.440Z,51.45
2022-08-20T09:39:04.594Z,51.02
2022-08-20T09:41:34.589Z,56.83
2022-08-20T09:44:04.071Z,55.46
2022-08-20T09:46:33.204Z,56.63
2022-08-20T09:49:02.367Z,50.91
2022-08-20T09:51:33.785Z,49.71
2022-08-20T09:54:04.856Z,50.50
2022-08-20T09:56:36.674Z,51.21
2022-08-20T09:59:05.989Z,50.38
2022-08-20T10:01:35.243Z,49.84
2022-08-20T10:04:04.742Z,46.49
2022-08-20T10:06:41.185Z,47.97
2022-08-20T10:09:10.635Z,50.10
2022-08-20T10:11:40.023Z,53.71
2022-08-20T10:14:10.102Z,50.93
2022-08-20T10:16:39.456Z,51.47
2022-08-20T10:19:08.754Z,50.23
2022-08-20T10:21:39.525Z,48.29
2022-08-20T10:24:08.826Z,48.01
2022-08-20T10:26:39.807Z,48.93
2022-08-20T10:29:08.865Z,50.18
2022-08-20T10:31:38.069Z,51.41
2022-08-20T10:34:07.558Z,47.64
2022-08-20T10:36:38.140Z,48.24
2022-08-20T10:39:07.225Z,47.21
2022-08-20T10:41:38.944Z,48.24
2022-08-20T10:44:08.556Z,51.88
2022-08-20T10:46:37.638Z,50.37
2022-08-20T10:49:06.754Z,50.91
2022-08-20T10:51:35.879Z,50.89
2022-08-20T10:54:09.444Z,51.31
2022-08-20T10:56:42.055Z,51.25
2022-08-20T10:59:11.185Z,52.03
2022-08-20T11:01:40.922Z,52.89
2022-08-20T11:04:10.418Z,54.82
2022-08-20T11:06:39.457Z,53.41
2022-08-20T11:09:10.278Z,54.46
2022-08-20T11:11:39.508Z,52.68
2022-08-20T11:14:10.216Z,52.92
2022-08-20T11:16:39.405Z,51.27
2022-08-20T11:19:08.515Z,52.59
2022-08-20T11:21:37.596Z,51.02
2022-08-20T11:24:06.949Z,50.25
2022-08-20T11:26:37.399Z,49.04
2022-08-20T11:29:06.476Z,48.24
2022-08-20T11:31:38.012Z,48.70
2022-08-20T11:34:10.731Z,47.41
2022-08-20T11:36:42.544Z,47.33
2022-08-20T11:39:11.919Z,48.09
2022-08-20T11:41:45.748Z,47.71
2022-08-20T11:44:21.164Z,48.10
2022-08-20T11:46:50.995Z,48.82
2022-08-20T11:49:20.094Z,46.96
2022-08-20T11:51:50.335Z,46.42
2022-08-20T11:54:19.762Z,43.60
2022-08-20T11:56:51.645Z,43.37
2022-08-20T11:59:20.957Z,43.65
2022-08-20T12:02:02.759Z,44.36
2022-08-20T12:04:33.535Z,43.41
2022-08-20T12:07:11.005Z,44.03
2022-08-20T12:09:47.326Z,40.84
2022-08-20T12:12:23.929Z,42.00
2022-08-20T12:14:54.068Z,42.56
2022-08-20T12:17:26.959Z,41.93
2022-08-20T12:19:58.860Z,40.23
2022-08-20T12:22:28.256Z,39.59
2022-08-20T12:24:57.772Z,40.92
2022-08-20T12:27:30.258Z,39.89
2022-08-20T12:30:01.168Z,39.29
2022-08-20T12:32:32.138Z,39.51
2022-08-20T12:35:01.409Z,39.45
2022-08-20T12:37:33.026Z,38.00
2022-08-20T12:40:04.913Z,40.20
2022-08-20T12:42:35.470Z,38.73
2022-08-20T12:45:05.527Z,38.81
2022-08-20T12:47:37.213Z,38.19
2022-08-20T12:50:09.253Z,38.18
2022-08-20T12:52:38.439Z,40.12
2022-08-20T12:55:09.884Z,39.23
2022-08-20T12:57:43.949Z,39.45
2022-08-20T13:00:16.257Z,40.03
2022-08-20T13:02:45.443Z,40.44
2022-08-20T13:05:15.372Z,39.66
2022-08-20T13:07:46.681Z,39.15
2022-08-20T13:10:19.910Z,40.50
2022-08-20T13:12:50.749Z,39.22
2022-08-20T13:15:20.430Z,40.63
2022-08-20T13:17:52.793Z,40.18
2022-08-20T13:20:25.488Z,39.83
2022-08-20T13:22:56.330Z,39.82
2022-08-20T13:25:26.213Z,38.81
2022-08-20T13:28:03.882Z,39.96
2022-08-20T13:30:34.477Z,37.26
2022-08-20T13:33:03.690Z,36.77
2022-08-20T13:35:32.862Z,38.08
2022-08-20T13:38:01.942Z,35.88
2022-08-20T13:40:31.169Z,37.09
2022-08-20T13:43:06.479Z,37.64
2022-08-20T13:45:36.554Z,36.93
2022-08-20T13:48:06.956Z,35.99
2022-08-20T13:50:47.166Z,36.23
2022-08-20T13:53:17.489Z,36.67
2022-08-20T13:55:47.517Z,36.54
2022-08-20T13:58:18.379Z,37.30
2022-08-20T14:00:47.641Z,37.17
2022-08-20T14:03:19.935Z,36.38
2022-08-20T14:05:54.169Z,37.11
2022-08-20T14:08:24.792Z,36.78
2022-08-20T14:10:54.503Z,35.28
2022-08-20T14:13:26.906Z,33.62
2022-08-20T14:15:56.969Z,34.29
2022-08-20T14:18:26.055Z,34.40
2022-08-20T14:20:55.151Z,36.12
2022-08-20T14:23:24.217Z,33.82
2022-08-20T14:25:53.400Z,32.34
2022-08-20T14:28:25.742Z,32.27
2022-08-20T14:30:55.379Z,34.40
2022-08-20T14:33:25.085Z,35.50
2022-08-20T14:35:54.526Z,33.70
2022-08-20T14:38:23.673Z,33.67
2022-08-20T14:40:52.886Z,33.84
2022-08-20T14:43:22.084Z,33.96
2022-08-20T14:45:53.073Z,34.35
2022-08-20T14:48:24.322Z,34.60
2022-08-20T14:50:55.333Z,34.90
2022-08-20T14:53:24.450Z,35.97
2022-08-20T14:55:53.532Z,36.50
2022-08-20T14:58:22.533Z,36.43
2022-08-20T15:00:54.993Z,36.50
2022-08-20T15:03:28.647Z,35.65
2022-08-20T15:05:57.999Z,36.34
2022-08-20T15:08:28.385Z,37.47
2022-08-20T15:10:58.425Z,40.00
2022-08-20T15:13:27.505Z,38.53
2022-08-20T15:15:57.977Z,39.03
2022-08-20T15:18:28.698Z,38.14
2022-08-20T15:20:57.762Z,37.12
2022-08-20T15:23:26.894Z,37.15
2022-08-20T15:25:58.942Z,37.67
2022-08-20T15:28:28.004Z,38.62
2022-08-20T15:30:58.504Z,39.62
2022-08-20T15:33:27.582Z,37.95
2022-08-20T15:35:56.634Z,38.75
2022-08-20T15:38:25.799Z,38.27
2022-08-20T15:40:54.883Z,39.94
2022-08-20T15:43:23.878Z,42.31
2022-08-20T15:45:53.309Z,40.09
2022-08-20T15:48:31.555Z,39.82
2022-08-20T15:51:14.797Z,40.68
2022-08-20T15:53:53.451Z,41.35
2022-08-20T15:56:45.632Z,44.12
2022-08-20T15:59:26.642Z,42.36
2022-08-20T16:02:06.404Z,43.74
2022-08-20T16:05:12.110Z,42.61
2022-08-20T16:07:54.563Z,40.99
2022-08-20T16:10:31.199Z,41.31
2022-08-20T16:13:04.487Z,41.39
2022-08-20T16:15:37.073Z,42.47
2022-08-20T16:18:11.629Z,43.44
2022-08-20T16:20:47.942Z,43.75
2022-08-20T16:23:19.205Z,43.69
2022-08-20T16:26:05.587Z,43.88
2022-08-20T16:28:46.676Z,44.39
2022-08-20T16:31:21.766Z,45.24
2022-08-20T16:34:02.870Z,45.97
2022-08-20T16:36:39.760Z,46.06
2022-08-20T16:39:17.769Z,45.88
2022-08-20T16:41:49.255Z,45.53
2022-08-20T16:44:29.152Z,47.02
2022-08-20T16:47:11.663Z,48.08
2022-08-20T16:49:49.150Z,48.42
2022-08-20T16:52:19.629Z,49.20
2022-08-20T16:54:48.691Z,48.53
2022-08-20T16:57:18.755Z,47.96
2022-08-20T16:59:59.777Z,47.04
2022-08-20T17:02:28.965Z,47.08
2022-08-20T17:05:02.021Z,45.48
2022-08-20T17:07:47.036Z,45.22
2022-08-20T17:10:24.119Z,46.08
2022-08-20T17:12:55.815Z,44.65
2022-08-20T17:15:28.360Z,44.20
2022-08-20T17:17:57.699Z,45.32
2022-08-20T17:20:29.675Z,45.60
2022-08-20T17:23:16.241Z,44.70
2022-08-20T17:25:55.136Z,44.47
2022-08-20T17:28:24.291Z,44.60
2022-08-20T17:30:53.896Z,44.85
2022-08-20T17:33:31.263Z,45.17
2022-08-20T17:36:02.748Z,44.95
2022-08-20T17:38:41.055Z,45.39
2022-08-20T17:41:17.276Z,44.42
2022-08-20T17:43:47.074Z,44.33
2022-08-20T17:46:18.624Z,45.23
2022-08-20T17:48:49.995Z,44.78
2022-08-20T17:51:22.140Z,45.07
2022-08-20T17:53:57.921Z,45.95
2022-08-20T17:56:31.972Z,47.30
2022-08-20T17:59:05.927Z,48.54
2022-08-20T18:01:35.998Z,49.27
2022-08-20T18:04:05.838Z,49.49
2022-08-20T18:06:41.092Z,50.96
2022-08-20T18:09:17.478Z,51.29
2022-08-20T18:11:54.735Z,51.70
2022-08-20T18:14:47.085Z,52.66
2022-08-20T18:17:26.144Z,52.50
2022-08-20T18:20:37.793Z,52.84
2022-08-20T18:23:13.064Z,53.21
2022-08-20T18:25:49.625Z,54.27
2022-08-20T18:28:23.974Z,54.40
2022-08-20T18:30:57.237Z,54.25
2022-08-20T18:33:30.352Z,55.04
2022-08-20T18:36:09.646Z,54.49
2022-08-20T18:38:41.988Z,55.50
2022-08-20T18:41:27.801Z,56.22
2022-08-20T18:44:09.371Z,56.71
2022-08-20T18:46:51.525Z,56.08
2022-08-20T18:49:30.221Z,56.43
2022-08-20T18:52:09.171Z,56.73
2022-08-20T18:54:39.171Z,57.25
2022-08-20T18:57:18.838Z,57.29
2022-08-20T18:59:55.296Z,57.78
2022-08-20T19:02:29.314Z,58.46
2022-08-20T19:05:02.478Z,58.67
2022-08-20T19:07:45.807Z,58.44
2022-08-20T19:10:38.764Z,59.17
2022-08-20T19:13:40.953Z,59.49
2022-08-20T19:16:15.881Z,58.52
2022-08-20T19:18:51.462Z,58.97
2022-08-20T19:21:26.077Z,59.47
2022-08-20T19:23:58.839Z,60.20
2022-08-20T19:26:31.208Z,61.43
2022-08-20T19:29:08.125Z,61.84
2022-08-20T19:31:37.862Z,61.66
2022-08-20T19:34:19.059Z,62.36
2022-08-20T19:36:56.529Z,62.76
2022-08-20T19:39:26.933Z,63.82
2022-08-20T19:42:01.441Z,63.93
2022-08-20T19:44:37.606Z,64.23
2022-08-20T19:47:14.721Z,63.54
2022-08-20T19:49:54.821Z,64.53
2022-08-20T19:52:36.877Z,64.34
2022-08-20T19:55:16.270Z,65.08
2022-08-20T19:57:51.914Z,65.52
2022-08-20T20:00:23.949Z,66.28
2022-08-20T20:02:53.738Z,66.58
2022-08-20T20:05:23.869Z,65.73
2022-08-20T20:07:59.056Z,66.15
2022-08-20T20:10:33.206Z,67.05
2022-08-20T20:13:09.475Z,67.38
2022-08-20T20:15:41.711Z,67.50
2022-08-20T20:18:11.571Z,67.53
2022-08-20T20:20:50.230Z,67.43
2022-08-20T20:23:45.661Z,68.42
2022-08-20T20:26:19.783Z,68.30
2022-08-20T20:28:52.919Z,68.13
2022-08-20T20:31:28.760Z,67.83
2022-08-20T20:34:01.807Z,68.81
2022-08-20T20:36:37.834Z,69.06
2022-08-20T20:39:14.195Z,68.92
2022-08-20T20:41:53.194Z,70.61
2022-08-20T20:44:25.329Z,71.47
2022-08-20T20:46:59.790Z,72.09
2022-08-20T20:49:31.974Z,70.70
2022-08-20T20:52:04.974Z,71.90
2022-08-20T20:54:42.647Z,72.50
2022-08-20T20:57:35.320Z,72.18
2022-08-20T21:00:14.886Z,73.30
2022-08-20T21:02:45.656Z,73.07
2022-08-20T21:05:16.759Z,73.77
2022-08-20T21:07:50.929Z,74.06
2022-08-20T21:10:23.571Z,73.91
2022-08-20T21:12:53.597Z,73.41
2022-08-20T21:15:24.858Z,74.92
2022-08-20T21:17:59.156Z,74.79
2022-08-20T21:20:28.771Z,74.04
2022-08-20T21:22:59.038Z,74.80
2022-08-20T21:25:32.973Z,76.03
2022-08-20T21:28:02.586Z,75.91
2022-08-20T21:30:33.785Z,76.27
2022-08-20T21:33:04.615Z,76.76
2022-08-20T21:35:33.893Z,77.28
2022-08-20T21:38:02.876Z,76.98
2022-08-20T21:40:32.147Z,76.09
2022-08-20T21:43:01.913Z,76.80
2022-08-20T21:45:35.981Z,76.73
2022-08-20T21:48:07.878Z,76.83
2022-08-20T21:50:37.191Z,76.98
2022-08-20T21:53:12.449Z,77.65
2022-08-20T21:55:42.541Z,76.96
2022-08-20T21:58:13.133Z,77.50
2022-08-20T22:00:56.051Z,76.67
2022-08-20T22:03:29.032Z,78.47
2022-08-20T22:06:03.917Z,79.79
2022-08-20T22:08:33.132Z,80.77
2022-08-20T22:11:03.180Z,81.08
2022-08-20T22:13:34.008Z,81.14
2022-08-20T22:16:05.593Z,81.25
2022-08-20T22:18:36.883Z,82.33
2022-08-20T22:21:11.052Z,82.00
2022-08-20T22:23:41.022Z,82.82
2022-08-20T22:26:11.989Z,83.98
2022-08-20T22:28:42.047Z,82.50
2022-08-20T22:31:13.557Z,82.47
2022-08-20T22:33:47.567Z,82.63
2022-08-20T22:36:17.237Z,82.12
2022-08-20T22:38:47.339Z,81.34
2022-08-20T22:41:26.868Z,82.11
2022-08-20T22:43:57.437Z,83.31
2022-08-20T22:46:31.891Z,84.44
2022-08-20T22:49:03.284Z,85.37
2022-08-20T22:51:35.889Z,85.79
2022-08-20T22:54:11.425Z,86.33
2022-08-20T22:56:40.896Z,86.63
2022-08-20T22:59:09.998Z,86.84
2022-08-20T23:01:40.694Z,86.36
2022-08-20T23:04:14.409Z,85.95
2022-08-20T23:06:43.551Z,86.09
2022-08-20T23:09:12.924Z,86.41
2022-08-20T23:11:42.636Z,86.91
2022-08-20T23:14:11.949Z,86.43
2022-08-20T23:16:44.961Z,84.66
2022-08-20T23:19:21.637Z,85.68
2022-08-20T23:21:51.687Z,84.98
2022-08-20T23:24:21.507Z,85.29
2022-08-20T23:26:52.914Z,85.67
2022-08-20T23:29:25.417Z,85.47
2022-08-20T23:31:55.340Z,85.89
2022-08-20T23:34:26.473Z,85.44
2022-08-20T23:36:56.994Z,85.75
2022-08-20T23:39:27.424Z,85.83
2022-08-20T23:41:56.860Z,85.30
2022-08-20T23:44:27.184Z,84.97
2022-08-20T23:46:58.357Z,85.01
2022-08-20T23:49:30.189Z,84.38
2022-08-20T23:52:00.642Z,85.39
2022-08-20T23:54:30.516Z,85.45
2022-08-20T23:56:59.879Z,87.05
2022-08-20T23:59:29.102Z,87.60
